createdAt,value
2019-04-28T00:01:23.375Z,11.20
2019-04-28T00:03:54.864Z,11.20
2019-04-28T00:06:26.408Z,11.30
2019-04-28T00:08:57.214Z,11.30
2019-04-28T00:11:28.163Z,11.30
2019-04-28T00:13:59.343Z,11.10
2019-04-28T00:16:31.109Z,11.20
2019-04-28T00:19:02.224Z,11.10
2019-04-28T00:21:48.078Z,10.90
2019-04-28T00:24:41.708Z,10.90
2019-04-28T00:27:14.884Z,11.00
2019-04-28T00:29:46.390Z,11.10
2019-04-28T00:32:17.543Z,11.00
2019-04-28T00:34:48.531Z,11.00
2019-04-28T00:37:25.855Z,11.20
2019-04-28T00:39:57.273Z,11.20
2019-04-28T00:42:28.718Z,11.20
2019-04-28T00:45:01.691Z,10.90
2019-04-28T00:47:32.924Z,10.80
2019-04-28T00:50:04.410Z,10.70
2019-04-28T00:52:35.304Z,10.50
2019-04-28T00:55:07.173Z,10.40
2019-04-28T00:57:38.254Z,10.60
2019-04-28T01:00:11.478Z,10.70
2019-04-28T01:02:43.210Z,10.70
2019-04-28T01:05:14.683Z,10.70
2019-04-28T01:07:46.133Z,10.90
2019-04-28T01:10:17.548Z,10.80
2019-04-28T01:12:48.548Z,10.70
2019-04-28T01:15:29.836Z,10.70
2019-04-28T01:18:10.458Z,10.60
2019-04-28T01:20:41.699Z,10.60
2019-04-28T01:23:13.059Z,10.60
2019-04-28T01:25:44.333Z,10.60
2019-04-28T01:28:15.508Z,10.60
2019-04-28T01:31:14.278Z,10.60
2019-04-28T01:34:04.169Z,10.70
2019-04-28T01:36:36.793Z,10.60
2019-04-28T01:39:10.095Z,10.80
2019-04-28T01:41:41.468Z,10.70
2019-04-28T01:44:12.273Z,10.70
2019-04-28T01:46:43.268Z,10.70
2019-04-28T01:49:14.404Z,10.70
2019-04-28T01:51:46.629Z,10.70
2019-04-28T01:54:18.049Z,10.70
2019-04-28T01:56:50.243Z,10.70
2019-04-28T01:59:21.884Z,10.70
2019-04-28T02:01:52.779Z,10.60
2019-04-28T02:04:24.337Z,10.40
2019-04-28T02:06:55.543Z,10.30
2019-04-28T02:09:26.334Z,10.50
2019-04-28T02:11:57.299Z,10.50
2019-04-28T02:14:28.218Z,10.60
2019-04-28T02:17:00.506Z,10.60
2019-04-28T02:19:33.012Z,10.70
2019-04-28T02:22:16.448Z,10.70
2019-04-28T02:24:47.663Z,10.30
2019-04-28T02:27:20.378Z,10.40
2019-04-28T02:29:51.884Z,10.50
2019-04-28T02:32:24.371Z,10.50
2019-04-28T02:34:55.978Z,10.50
2019-04-28T02:37:27.270Z,10.30
2019-04-28T02:40:02.782Z,10.30
2019-04-28T02:42:31.017Z,10.20
2019-04-28T02:45:02.553Z,10.20
2019-04-28T02:47:34.149Z,10.20
2019-04-28T02:50:27.580Z,10.10
2019-04-28T02:53:15.589Z,10.10
2019-04-28T02:55:46.504Z,10.20
2019-04-28T02:58:17.563Z,10.10
2019-04-28T03:01:04.919Z,10.10
2019-04-28T03:03:21.380Z,10.10
2019-04-28T03:05:52.355Z,10.10
2019-04-28T03:08:23.412Z,10.10
2019-04-28T03:10:54.313Z,10.20
2019-04-28T03:13:25.419Z,10.10
2019-04-28T03:15:56.475Z,10.20
2019-04-28T03:18:27.298Z,10.30
2019-04-28T03:21:01.697Z,10.30
2019-04-28T03:23:31.243Z,10.20
2019-04-28T03:26:16.179Z,10.20
2019-04-28T03:29:05.666Z,10.20
2019-04-28T03:32:24.777Z,10.20
2019-04-28T03:34:44.847Z,10.20
2019-04-28T03:37:15.895Z,10.10
2019-04-28T03:39:50.185Z,10.10
2019-04-28T03:42:21.633Z,10.00
2019-04-28T03:44:53.200Z,9.90
2019-04-28T03:47:24.634Z,9.90
2019-04-28T03:49:56.039Z,9.90
2019-04-28T03:52:27.474Z,9.90
2019-04-28T03:55:00.513Z,9.70
2019-04-28T03:57:31.643Z,9.70
2019-04-28T04:00:02.963Z,9.80
2019-04-28T04:02:33.804Z,9.90
2019-04-28T04:05:05.601Z,9.90
2019-04-28T04:07:36.873Z,9.90
2019-04-28T04:10:24.566Z,9.90
2019-04-28T04:13:06.949Z,10.00
2019-04-28T04:15:56.770Z,10.00
2019-04-28T04:18:40.750Z,10.00
2019-04-28T04:21:12.277Z,10.00
2019-04-28T04:23:43.594Z,9.90
2019-04-28T04:26:15.299Z,9.80
2019-04-28T04:28:46.609Z,9.70
2019-04-28T04:31:19.885Z,9.70
2019-04-28T04:33:50.989Z,9.50
2019-04-28T04:36:22.251Z,9.50
2019-04-28T04:38:53.807Z,9.60
2019-04-28T04:41:25.268Z,9.70
2019-04-28T04:43:56.274Z,9.70
2019-04-28T04:46:27.012Z,9.70
2019-04-28T04:49:00.437Z,9.90
2019-04-28T04:51:31.159Z,9.80
2019-04-28T04:54:02.576Z,9.70
2019-04-28T04:56:33.704Z,9.80
2019-04-28T04:59:04.510Z,9.70
2019-04-28T05:02:02.092Z,9.70
2019-04-28T05:04:50.646Z,9.60
2019-04-28T05:07:22.074Z,9.50
2019-04-28T05:09:53.103Z,9.40
2019-04-28T05:12:24.489Z,9.40
2019-04-28T05:14:55.773Z,9.40
2019-04-28T05:17:26.563Z,9.30
2019-04-28T05:19:59.519Z,9.40
2019-04-28T05:22:31.640Z,9.30
2019-04-28T05:25:16.483Z,9.30
2019-04-28T05:27:49.924Z,9.30
2019-04-28T05:30:20.541Z,9.30
2019-04-28T05:32:56.258Z,9.40
2019-04-28T05:35:25.234Z,9.50
2019-04-28T05:37:56.808Z,9.60
2019-04-28T05:40:29.576Z,9.70
2019-04-28T05:43:01.115Z,9.80
2019-04-28T05:45:32.538Z,9.90
2019-04-28T05:48:03.474Z,10.00
2019-04-28T05:50:43.278Z,10.20
2019-04-28T05:53:22.844Z,10.40
2019-04-28T05:56:01.159Z,10.50
2019-04-28T05:58:41.826Z,10.60
2019-04-28T06:01:34.134Z,10.70
2019-04-28T06:04:04.978Z,10.80
2019-04-28T06:06:40.539Z,11.00
2019-04-28T06:09:20.409Z,11.20
2019-04-28T06:11:54.363Z,11.30
2019-04-28T06:14:24.759Z,11.40
2019-04-28T06:16:55.899Z,11.50
2019-04-28T06:19:26.733Z,11.60
2019-04-28T06:21:58.244Z,11.70
2019-04-28T06:24:29.489Z,11.90
2019-04-28T06:27:00.323Z,12.10
2019-04-28T06:29:31.419Z,12.30
2019-04-28T06:32:02.730Z,12.40
2019-04-28T06:34:33.832Z,12.50
2019-04-28T06:37:05.205Z,12.60
2019-04-28T06:39:36.160Z,13.00
2019-04-28T06:42:07.463Z,13.70
2019-04-28T06:44:38.564Z,13.90
2019-04-28T06:47:09.500Z,14.10
2019-04-28T06:49:40.799Z,14.10
2019-04-28T06:52:14.094Z,14.20
2019-04-28T06:54:46.859Z,14.30
2019-04-28T06:57:18.365Z,14.30
2019-04-28T06:59:49.923Z,14.40
2019-04-28T07:02:21.308Z,14.50
2019-04-28T07:05:01.595Z,14.70
2019-04-28T07:07:25.433Z,14.70
2019-04-28T07:09:56.849Z,14.80
2019-04-28T07:12:27.659Z,14.80
2019-04-28T07:14:59.053Z,14.90
2019-04-28T07:17:29.893Z,15.10
2019-04-28T07:20:15.458Z,15.20
2019-04-28T07:22:47.109Z,15.30
2019-04-28T07:25:18.728Z,15.40
2019-04-28T07:27:50.113Z,15.40
2019-04-28T07:30:21.534Z,15.50
2019-04-28T07:32:52.832Z,15.60
2019-04-28T07:35:23.673Z,15.60
2019-04-28T07:37:54.574Z,15.70
2019-04-28T07:40:25.883Z,15.70
2019-04-28T07:42:57.103Z,15.90
2019-04-28T07:45:28.379Z,15.90
2019-04-28T07:47:59.841Z,16.00
2019-04-28T07:50:31.051Z,16.00
2019-04-28T07:53:08.375Z,16.10
2019-04-28T07:55:39.713Z,16.10
2019-04-28T07:58:11.019Z,16.30
2019-04-28T08:00:42.421Z,16.30
2019-04-28T08:03:14.113Z,16.40
2019-04-28T08:05:45.198Z,16.60
2019-04-28T08:08:16.283Z,16.40
2019-04-28T08:10:47.443Z,16.70
2019-04-28T08:13:18.578Z,16.70
2019-04-28T08:15:49.804Z,16.80
2019-04-28T08:18:21.058Z,16.90
2019-04-28T08:20:52.128Z,17.00
2019-04-28T08:23:25.389Z,17.00
2019-04-28T08:25:56.290Z,17.10
2019-04-28T08:28:27.543Z,17.20
2019-04-28T08:30:58.793Z,17.30
2019-04-28T08:33:36.928Z,17.30
2019-04-28T08:36:08.217Z,17.50
2019-04-28T08:38:39.710Z,17.60
2019-04-28T08:41:10.893Z,17.70
2019-04-28T08:43:42.468Z,17.60
2019-04-28T08:46:13.288Z,17.60
2019-04-28T08:48:44.483Z,17.70
2019-04-28T08:51:15.498Z,17.70
2019-04-28T08:53:46.645Z,17.70
2019-04-28T08:56:17.908Z,17.80
2019-04-28T09:10:19.128Z,17.50
2019-04-28T09:12:50.308Z,16.90
2019-04-28T09:15:21.384Z,16.90
2019-04-28T09:17:52.753Z,17.00
2019-04-28T09:20:23.713Z,16.90
2019-04-28T09:22:54.974Z,17.10
2019-04-28T09:25:26.448Z,17.30
2019-04-28T09:27:57.663Z,17.30
2019-04-28T09:30:29.138Z,17.30
2019-04-28T09:33:00.220Z,17.40
2019-04-28T09:35:31.533Z,17.60
2019-04-28T09:38:02.823Z,17.70
2019-04-28T09:40:33.963Z,18.10
2019-04-28T09:43:11.694Z,18.40
2019-04-28T09:45:51.528Z,18.70
2019-04-28T09:48:22.683Z,18.20
2019-04-28T09:50:54.183Z,18.40
2019-04-28T09:53:25.593Z,18.30
2019-04-28T09:55:56.944Z,18.30
2019-04-28T09:58:28.243Z,18.20
2019-04-28T10:00:59.538Z,18.20
2019-04-28T10:03:31.114Z,18.10
2019-04-28T10:06:02.332Z,18.40
2019-04-28T10:08:36.417Z,18.40
2019-04-28T10:11:06.686Z,18.50
2019-04-28T10:13:38.165Z,18.40
2019-04-28T10:16:09.078Z,18.50
2019-04-28T10:18:40.328Z,18.50
2019-04-28T10:21:11.713Z,18.70
2019-04-28T10:23:42.998Z,18.80
2019-04-28T10:26:14.263Z,18.80
2019-04-28T10:28:45.855Z,18.50
2019-04-28T10:31:17.104Z,18.60
2019-04-28T10:33:51.423Z,18.60
2019-04-28T10:36:22.489Z,18.60
2019-04-28T10:38:55.574Z,18.50
2019-04-28T10:41:35.583Z,18.50
2019-04-28T10:44:08.628Z,18.60
2019-04-28T10:46:39.969Z,18.70
2019-04-28T10:49:11.558Z,19.00
2019-04-28T10:51:42.619Z,18.80
2019-04-28T10:54:14.859Z,19.00
2019-04-28T10:56:46.086Z,19.10
2019-04-28T10:59:17.885Z,18.90
2019-04-28T11:01:49.282Z,18.80
2019-04-28T11:04:37.904Z,19.20
2019-04-28T11:07:10.289Z,19.10
2019-04-28T11:09:45.764Z,18.90
2019-04-28T11:12:24.884Z,19.10
2019-04-28T11:14:55.834Z,19.20
2019-04-28T11:17:27.434Z,19.20
2019-04-28T11:19:58.448Z,19.00
2019-04-28T11:22:29.638Z,19.20
2019-04-28T11:25:01.199Z,19.40
2019-04-28T11:27:32.179Z,18.90
2019-04-28T11:30:03.248Z,18.90
2019-04-28T11:32:34.093Z,19.30
2019-04-28T11:35:26.974Z,19.00
2019-04-28T11:37:58.358Z,18.80
2019-04-28T11:40:29.536Z,19.30
2019-04-28T11:43:01.174Z,19.40
2019-04-28T11:45:32.086Z,19.80
2019-04-28T11:48:03.442Z,19.40
2019-04-28T11:50:34.994Z,19.30
2019-04-28T11:53:06.674Z,19.30
2019-04-28T11:55:37.819Z,19.20
2019-04-28T11:58:09.645Z,19.70
2019-04-28T12:00:41.160Z,19.70
2019-04-28T12:03:12.311Z,19.50
2019-04-28T12:05:46.310Z,19.30
2019-04-28T12:08:17.519Z,19.50
2019-04-28T12:10:58.863Z,19.50
2019-04-28T12:13:54.963Z,19.40
2019-04-28T12:16:50.847Z,19.30
2019-04-28T12:19:30.346Z,19.20
2019-04-28T12:22:01.809Z,19.30
2019-04-28T12:24:33.087Z,19.60
2019-04-28T12:27:04.559Z,19.30
2019-04-28T12:29:35.751Z,19.20
2019-04-28T12:32:06.954Z,19.30
2019-04-28T12:34:38.199Z,19.60
2019-04-28T12:37:09.422Z,19.10
2019-04-28T12:39:40.494Z,19.20
2019-04-28T12:42:11.924Z,19.30
2019-04-28T12:44:44.023Z,19.80
2019-04-28T12:47:15.288Z,20.00
2019-04-28T12:50:00.196Z,20.80
2019-04-28T12:52:31.343Z,20.20
2019-04-28T12:55:02.675Z,20.00
2019-04-28T12:57:34.002Z,20.10
2019-04-28T13:00:30.119Z,20.20
2019-04-28T13:03:17.399Z,19.90
2019-04-28T13:06:00.752Z,19.60
2019-04-28T13:08:22.324Z,20.30
2019-04-28T13:10:53.698Z,19.90
2019-04-28T13:13:25.094Z,19.70
2019-04-28T13:15:56.018Z,19.70
2019-04-28T13:18:27.819Z,20.10
2019-04-28T13:20:59.099Z,19.90
2019-04-28T13:23:30.786Z,20.00
2019-04-28T13:26:01.988Z,20.20
2019-04-28T13:28:33.336Z,20.70
2019-04-28T13:31:04.769Z,21.40
2019-04-28T13:33:35.833Z,21.00
2019-04-28T13:36:14.519Z,22.00
2019-04-28T13:38:40.063Z,22.40
2019-04-28T13:41:11.129Z,22.30
2019-04-28T13:43:42.764Z,21.30
2019-04-28T13:46:14.436Z,20.70
2019-04-28T13:48:45.713Z,21.70
2019-04-28T13:51:17.226Z,21.70
2019-04-28T13:53:48.629Z,21.30
2019-04-28T13:56:19.743Z,21.60
2019-04-28T13:59:14.769Z,21.30
2019-04-28T14:02:13.554Z,21.50
2019-04-28T14:05:18.190Z,21.00
2019-04-28T14:07:49.040Z,21.30
2019-04-28T14:10:19.904Z,21.70
2019-04-28T14:12:50.695Z,20.10
2019-04-28T14:15:22.173Z,19.70
2019-04-28T14:17:53.449Z,20.70
2019-04-28T14:20:24.915Z,19.80
2019-04-28T14:22:56.244Z,20.60
2019-04-28T14:25:27.915Z,21.10
2019-04-28T14:27:59.075Z,21.00
2019-04-28T14:30:30.780Z,20.80
2019-04-28T14:33:02.019Z,20.80
2019-04-28T14:35:33.657Z,20.50
2019-04-28T14:38:04.804Z,22.10
2019-04-28T14:40:36.295Z,24.10
2019-04-28T14:43:07.556Z,22.80
2019-04-28T14:45:38.784Z,21.00
2019-04-28T14:48:10.584Z,23.50
2019-04-28T14:50:41.776Z,24.60
2019-04-28T14:53:12.893Z,25.50
2019-04-28T14:55:44.514Z,25.70
2019-04-28T14:58:15.903Z,26.50
2019-04-28T15:00:50.779Z,26.50
2019-04-28T15:03:22.235Z,26.50
2019-04-28T15:06:08.889Z,26.50
2019-04-28T15:08:47.833Z,24.70
2019-04-28T15:11:25.126Z,23.40
2019-04-28T15:13:56.879Z,22.90
2019-04-28T15:16:27.912Z,23.10
2019-04-28T15:18:59.330Z,23.90
2019-04-28T15:21:30.745Z,22.20
2019-04-28T15:24:01.854Z,20.60
2019-04-28T15:26:32.909Z,20.10
2019-04-28T15:29:04.095Z,21.50
2019-04-28T15:31:35.649Z,22.00
2019-04-28T15:34:06.669Z,22.30
2019-04-28T15:36:38.059Z,22.10
2019-04-28T15:39:12.162Z,21.90
2019-04-28T15:41:43.614Z,22.70
2019-04-28T15:44:14.889Z,21.70
2019-04-28T15:46:46.519Z,23.40
2019-04-28T15:49:17.429Z,24.50
2019-04-28T15:51:48.809Z,23.00
2019-04-28T15:54:20.172Z,23.10
2019-04-28T15:56:51.319Z,22.70
2019-04-28T15:59:24.618Z,23.70
2019-04-28T16:01:56.079Z,23.60
2019-04-28T16:04:27.184Z,22.40
2019-04-28T16:06:58.396Z,22.50
2019-04-28T16:09:29.194Z,22.20
2019-04-28T16:12:00.595Z,22.70
2019-04-28T16:14:32.398Z,23.00
2019-04-28T16:17:03.759Z,22.60
2019-04-28T16:19:35.188Z,22.40
2019-04-28T16:22:06.753Z,22.20
2019-04-28T16:24:38.395Z,23.00
2019-04-28T16:27:09.249Z,23.00
2019-04-28T16:29:40.724Z,21.70
2019-04-28T16:32:11.864Z,21.30
2019-04-28T16:34:42.812Z,20.40
2019-04-28T16:37:13.979Z,21.00
2019-04-28T16:39:45.145Z,21.50
2019-04-28T16:42:19.914Z,21.20
2019-04-28T16:44:52.384Z,21.10
2019-04-28T16:47:23.699Z,21.30
2019-04-28T16:49:54.669Z,20.30
2019-04-28T16:52:26.308Z,20.60
2019-04-28T16:55:19.769Z,20.30
2019-04-28T16:58:27.863Z,20.00
2019-04-28T17:01:13.884Z,20.30
2019-04-28T17:03:45.187Z,19.80
2019-04-28T17:06:16.018Z,20.10
2019-04-28T17:08:47.409Z,19.90
2019-04-28T17:11:18.248Z,20.10
2019-04-28T17:13:49.358Z,19.50
2019-04-28T17:16:20.773Z,19.50
2019-04-28T17:18:51.614Z,19.20
2019-04-28T17:21:22.469Z,19.50
2019-04-28T17:23:53.418Z,19.40
2019-04-28T17:26:24.140Z,19.90
2019-04-28T17:28:55.009Z,19.70
2019-04-28T17:31:25.953Z,19.30
2019-04-28T17:33:56.743Z,19.20
2019-04-28T17:36:27.769Z,19.40
2019-04-28T17:38:58.529Z,19.00
2019-04-28T17:41:29.393Z,19.50
2019-04-28T17:44:00.197Z,19.10
2019-04-28T17:46:30.934Z,19.60
2019-04-28T17:49:01.563Z,19.10
2019-04-28T17:51:32.313Z,19.00
2019-04-28T17:54:03.038Z,18.80
2019-04-28T17:56:33.888Z,18.40
2019-04-28T17:59:05.522Z,18.40
2019-04-28T18:01:55.679Z,18.30
2019-04-28T18:04:56.188Z,18.10
2019-04-28T18:07:30.779Z,17.90
2019-04-28T18:10:02.100Z,17.70
2019-04-28T18:12:33.288Z,17.20
2019-04-28T18:15:15.804Z,17.00
2019-04-28T18:17:58.024Z,16.90
2019-04-28T18:20:28.923Z,16.50
2019-04-28T18:23:00.530Z,16.30
2019-04-28T18:25:31.943Z,16.20
2019-04-28T18:28:03.774Z,16.00
2019-04-28T18:30:37.984Z,16.00
2019-04-28T18:33:27.508Z,16.00
2019-04-28T18:36:04.938Z,15.70
2019-04-28T18:38:47.544Z,15.40
2019-04-28T18:41:37.694Z,15.30
2019-04-28T18:44:16.889Z,15.00
2019-04-28T18:46:48.323Z,14.90
2019-04-28T18:49:19.873Z,14.70
2019-04-28T18:51:50.804Z,14.80
2019-04-28T18:54:22.067Z,15.00
2019-04-28T18:56:53.579Z,14.90
2019-04-28T18:59:24.876Z,15.20
2019-04-28T19:02:09.749Z,14.90
2019-04-28T19:04:41.237Z,15.20
2019-04-28T19:07:15.033Z,15.40
2019-04-28T19:10:07.253Z,15.20
2019-04-28T19:12:55.229Z,15.20
2019-04-28T19:15:43.901Z,15.20
2019-04-28T19:18:21.635Z,15.00
2019-04-28T19:20:53.203Z,15.10
2019-04-28T19:23:24.492Z,15.00
2019-04-28T19:25:56.224Z,14.80
2019-04-28T19:28:27.558Z,14.80
2019-04-28T19:30:59.183Z,14.80
2019-04-28T19:33:30.983Z,14.90
2019-04-28T19:36:03.265Z,15.00
2019-04-28T19:38:34.549Z,15.00
2019-04-28T19:41:05.993Z,14.90
2019-04-28T19:43:37.657Z,14.80
2019-04-28T19:46:12.120Z,14.70
2019-04-28T19:48:43.215Z,14.70
2019-04-28T19:51:14.880Z,14.70
2019-04-28T19:53:46.605Z,14.60
2019-04-28T19:56:25.094Z,14.60
2019-04-28T19:59:01.738Z,14.60
2019-04-28T20:01:33.146Z,14.60
2019-04-28T20:04:05.164Z,14.60
2019-04-28T20:06:36.950Z,14.60
2019-04-28T20:09:09.083Z,14.60
2019-04-28T20:11:40.872Z,14.50
2019-04-28T20:14:12.182Z,14.40
2019-04-28T20:16:43.859Z,14.40
2019-04-28T20:19:14.970Z,14.30
2019-04-28T20:21:46.894Z,14.10
2019-04-28T20:24:19.580Z,14.10
2019-04-28T20:26:51.118Z,14.00
2019-04-28T20:29:23.285Z,13.90
2019-04-28T20:31:54.319Z,13.90
2019-04-28T20:34:25.538Z,13.70
2019-04-28T20:37:05.096Z,13.60
2019-04-28T20:39:36.746Z,13.40
2019-04-28T20:42:35.661Z,13.50
2019-04-28T20:45:07.819Z,13.40
2019-04-28T20:47:39.404Z,13.30
2019-04-28T20:50:10.989Z,13.30
2019-04-28T20:52:42.430Z,13.30
2019-04-28T20:55:13.954Z,13.10
2019-04-28T20:57:45.202Z,13.30
2019-04-28T21:00:16.595Z,13.10
2019-04-28T21:02:47.548Z,13.00
2019-04-28T21:05:18.906Z,13.00
2019-04-28T21:07:50.039Z,12.90
2019-04-28T21:10:21.506Z,12.80
2019-04-28T21:12:52.589Z,12.90
2019-04-28T21:15:23.538Z,12.70
2019-04-28T21:17:55.024Z,12.60
2019-04-28T21:20:26.529Z,12.50
2019-04-28T21:22:57.870Z,12.50
2019-04-28T21:25:29.338Z,12.40
2019-04-28T21:28:00.198Z,12.30
2019-04-28T21:30:31.639Z,12.30
2019-04-28T21:33:03.009Z,12.10
2019-04-28T21:35:34.778Z,12.00
2019-04-28T21:38:05.854Z,11.90
2019-04-28T21:40:37.264Z,11.80
2019-04-28T21:43:33.224Z,11.80
2019-04-28T21:46:26.443Z,11.80
2019-04-28T21:49:03.404Z,11.70
2019-04-28T21:51:35.023Z,11.70
2019-04-28T21:54:06.458Z,11.60
2019-04-28T21:56:37.563Z,11.70
2019-04-28T21:59:08.405Z,11.60
2019-04-28T22:01:40.218Z,11.50
2019-04-28T22:04:11.499Z,11.50
2019-04-28T22:06:42.804Z,11.40
2019-04-28T22:09:14.524Z,11.30
2019-04-28T22:11:45.408Z,11.30
2019-04-28T22:14:16.824Z,11.30
2019-04-28T22:16:48.347Z,11.20
2019-04-28T22:19:19.618Z,11.20
2019-04-28T22:21:50.778Z,11.20
2019-04-28T22:24:30.203Z,11.10
2019-04-28T22:27:01.364Z,11.10
2019-04-28T22:29:32.339Z,11.00
2019-04-28T22:32:03.874Z,11.00
2019-04-28T22:34:35.159Z,10.90
2019-04-28T22:37:06.158Z,10.80
2019-04-28T22:39:37.333Z,10.80
2019-04-28T22:42:08.493Z,10.70
2019-04-28T22:44:39.983Z,10.70
2019-04-28T22:47:11.268Z,10.60
2019-04-28T22:49:42.143Z,10.60
2019-04-28T22:52:13.343Z,10.60
2019-04-28T22:55:03.237Z,10.60
2019-04-28T22:57:53.244Z,10.60
2019-04-28T23:01:02.154Z,10.50
2019-04-28T23:03:39.173Z,10.40
2019-04-28T23:06:10.705Z,10.30
2019-04-28T23:08:42.118Z,10.30
2019-04-28T23:11:13.208Z,10.30
2019-04-28T23:13:44.422Z,10.30
2019-04-28T23:16:15.983Z,10.20
2019-04-28T23:18:47.038Z,10.20
2019-04-28T23:21:35.533Z,10.20
2019-04-28T23:24:07.143Z,10.10
2019-04-28T23:26:37.933Z,10.10
2019-04-28T23:29:09.284Z,10.10
2019-04-28T23:31:40.628Z,10.10
2019-04-28T23:34:11.583Z,10.00
2019-04-28T23:36:42.813Z,10.00
2019-04-28T23:39:13.948Z,9.90
2019-04-28T23:41:54.446Z,10.00
2019-04-28T23:44:25.924Z,9.90
2019-04-28T23:46:58.622Z,9.90
2019-04-28T23:49:31.164Z,9.90
2019-04-28T23:52:17.651Z,9.80
2019-04-28T23:54:50.537Z,9.80
2019-04-28T23:57:21.404Z,9.80
2019-04-28T23:59:52.305Z,9.80
